DGAA

Details ICAO DGAA (ACC)
Name Accra_Kotoka_Intl
Region Ghana
Timezone Africa/Accra (UTC+0.0)
Plans Departing 228
Arriving 207
Stats Elevation 204 ft / 62 m (AMSL)
Location 5.602578° -0.167602°
Runways 1
Magnetic Variation 3.421° W
Sunrise 2017-12-11 06:01:18 UTC / 2017-12-11 06:01:18 Local
Sunset 2017-12-11 17:49:28 UTC / 2017-12-11 17:49:28 Local
Advertisement - Login to hide

Runways

ID Width Length Bearing (true) Bearing (mag) Surface Threshold Offset Overrun Length
03 200 ft / 61 m 11,176 ft / 3,406 m 22.00° 25.42° Asphalt 0 ft / 0 m 351 ft / 107 m
21 200 ft / 61 m 11,176 ft / 3,406 m 202.00° 205.42° Asphalt 1,355 ft / 413 m 0 ft / 0 m

Approach Navaids

Runway Type Ident Frequency Range Bearing (true) Bearing (mag) Slope Elevation
21 Localiser IACA 109.90 MHz 18 nm / 33 km 202.10° 205.52° - 204 ft / 62 m (AMSL)
21 Glidescope IACA 109.90 MHz 10 nm / 19 km 203.00° 206.42° 3.00° 204 ft / 62 m (AMSL)

Map

Weather


0- 5 10 15 20 25 30 35+ Temperature / ° C

Clouds and Precipitation
Forecast for 2017-12-12 00:00 UTC. Updated 2 hours ago

Ground ~20,000 ft ~40,000 ft Winds

METAR

DGAA 112000Z 15003KT 5000 BR NSC 27/25 Q1011 NOSIG

TAF

TAF DGAA 111700Z 1118/1224 14005KT 8000 BKN014 BECMG 1206/1208 28005KT 2000 HZ BECMG 1211/1213 08007KT BECMG 1217/1219 CAVOK

Frequencies

Ground 121.90 MHz ACCRA GND
Approach 119.50 MHz ACCRA APP
Tower 118.60 MHz ACCRA TWR
Warning: Do not use this data for real-world aviation or navigation. No guarantee of current accuracy is given.